CW5456 Hansville WA US current weather conditions

sailwx.info

Wind from 327 at 3 knots gusting 6

Air temperature 12.2° C
Dewpoint 10.5° C

Last reported at 2017-Jun-23 13:10 UTC.
Time now 2017-Jun-23 13:43 UTC

Location: N 47°55' W 122°35'.
View on Google Maps.

See reports from other nearby stations

  
Tides and Currents Weather Stations Pressure Air Temp Water Temp Dewpoint Dewpoint Depression Visibility Wind Speed Wind Dir Waves Ship Positions
date/time (UTC)wind fromknots sea level pressurealtimeterstation pressurevisibilityair tempwater tempwave heightnotes
2017-Jun-23 13:10 327 3 gusting 6 12.2
2017-Jun-23 13:00 276 6 gusting 7 12.2
2017-Jun-23 12:50 327 4 gusting 8 11.7
2017-Jun-23 12:40 244 3 gusting 6 11.1
2017-Jun-23 12:30 259 2 gusting 5 10.6
2017-Jun-23 12:20 327 0 gusting 2 10.0
2017-Jun-23 12:10 327 10.0
2017-Jun-23 12:00 327 10.0
2017-Jun-23 11:50 327 1 gusting 2 10.0
2017-Jun-23 11:40 327 1 gusting 2 10.6
2017-Jun-23 11:30 327 10.6
2017-Jun-23 11:20 327 10.6
2017-Jun-23 11:10 327 10.6
2017-Jun-23 11:00 327 10.6
2017-Jun-23 10:50 327 0 gusting 1 10.6
2017-Jun-23 10:40 327 10.6
2017-Jun-23 10:30 327 11.1
2017-Jun-23 10:20 327 11.1
2017-Jun-23 10:10 327 0 gusting 1 11.1
2017-Jun-23 10:00 327 11.1
2017-Jun-23 09:50 327 11.1
2017-Jun-23 09:40 327 11.1
2017-Jun-23 09:30 327 11.1
2017-Jun-23 09:20 327 11.7
2017-Jun-23 09:10 327 11.7
2017-Jun-23 09:00 327 11.7
2017-Jun-23 08:50 327 12.2
2017-Jun-23 08:40 327 2 gusting 4 12.8
2017-Jun-23 08:30 349 2 gusting 7 12.8
2017-Jun-23 08:20 019 3 gusting 4 12.8
2017-Jun-23 08:10 018 1 gusting 3 12.8
2017-Jun-23 08:00 356 3 gusting 7 13.3
2017-Jun-23 07:50 332 5 gusting 8 13.3
2017-Jun-23 07:40 332 6 gusting 10 13.3
2017-Jun-23 07:30 341 7 gusting 8 12.8
2017-Jun-23 07:20 12.8
2017-Jun-23 07:10 006 6 gusting 6 12.2
2017-Jun-23 07:00 006 0 gusting 4 12.2
2017-Jun-23 06:49 008 12.2
2017-Jun-23 06:40 308 1 gusting 5 12.8
2017-Jun-23 06:29 327 1 gusting 7 12.8
2017-Jun-23 06:19 251 1 gusting 9 12.8
2017-Jun-23 06:09 244 7 gusting 11 13.3
2017-Jun-23 05:59 295 2 gusting 9 13.3
2017-Jun-23 05:50 236 5 gusting 13 13.3
2017-Jun-23 05:40 258 6 gusting 12 13.3
2017-Jun-23 05:29 309 7 gusting 12 13.3
2017-Jun-23 05:19 253 2 gusting 6 13.3
2017-Jun-23 05:09 257 13.9
2017-Jun-23 05:00 239 3 gusting 8 14.4
2017-Jun-23 04:50 293 5 gusting 7 13.9
2017-Jun-23 04:40 301 0 gusting 2 14.4
2017-Jun-23 04:30 301 0 gusting 1 14.4
2017-Jun-23 04:20 295 14.4
2017-Jun-23 04:10 295 15.0
2017-Jun-23 04:00 295 15.0
2017-Jun-23 03:50 295 0 gusting 2 15.0
2017-Jun-23 03:39 294 15.0
2017-Jun-23 03:30 351 2 gusting 4 15.0
2017-Jun-23 03:20 327 15.0
2017-Jun-23 03:10 254 1 gusting 3 15.0
2017-Jun-23 03:00 254 15.6
2017-Jun-23 02:50 252 0 gusting 10 15.6
2017-Jun-23 02:40 301 7 gusting 12 15.6
2017-Jun-23 02:30 332 7 gusting 11 15.6
2017-Jun-23 02:20 216 15.0
2017-Jun-23 02:10 270 15.0
2017-Jun-23 02:00 277 15.0
2017-Jun-23 01:50 332 5 gusting 7 15.0
2017-Jun-23 01:40 231 2 gusting 10 15.6
2017-Jun-23 01:30 223 4 gusting 11 16.1
2017-Jun-23 01:20 302 5 gusting 14 15.6
2017-Jun-23 01:10 290 9 gusting 11 15.6
2017-Jun-23 01:00 247 2 gusting 6 15.0
2017-Jun-23 00:50 254 1 gusting 7 15.6
2017-Jun-23 00:40 332 0 gusting 7 15.6
2017-Jun-23 00:30 278 6 gusting 7 15.6
2017-Jun-22 23:20 293 8 gusting 10 15.6
2017-Jun-22 23:10 272 6 gusting 10 15.0
2017-Jun-22 23:00 297 10 gusting 13 15.6
2017-Jun-22 22:50 291 12 gusting 12 15.6
2017-Jun-22 22:40 252 8 gusting 10 15.0
2017-Jun-22 22:30 318 5 gusting 10 14.4
2017-Jun-22 22:20 310 10 gusting 13 14.4
2017-Jun-22 22:10 248 13 gusting 13 14.4
2017-Jun-22 22:00 268 6 gusting 8 14.4
2017-Jun-22 21:50 248 2 gusting 9 14.4
2017-Jun-22 21:40 302 7 gusting 12 14.4
2017-Jun-22 21:30 332 10 gusting 13 14.4
2017-Jun-22 21:20 337 11 gusting 12 15.0
2017-Jun-22 21:10 337 8 gusting 12 15.0
2017-Jun-22 21:00 332 10 gusting 11 15.0
2017-Jun-22 20:50 332 6 gusting 9 14.4
2017-Jun-22 20:40 337 7 gusting 10 14.4
2017-Jun-22 20:30 332 6 gusting 10 14.4
2017-Jun-22 20:20 323 6 gusting 11 14.4
2017-Jun-22 20:10 278 7 gusting 10 15.0
2017-Jun-22 20:00 289 8 gusting 11 15.0
2017-Jun-22 19:50 258 5 gusting 8 15.0
2017-Jun-22 19:40 350 2 gusting 6 15.0
2017-Jun-22 19:30 301 3 gusting 7 14.4
2017-Jun-22 19:20 301 5 gusting 8 14.4
2017-Jun-22 19:10 319 6 gusting 8 14.4
2017-Jun-22 19:00 332 5 gusting 8 14.4
2017-Jun-22 18:50 332 4 gusting 9 14.4
2017-Jun-22 18:40 303 6 gusting 9 14.4
2017-Jun-22 18:30 332 8 gusting 10 14.4
2017-Jun-22 18:20 313 5 gusting 8 14.4
2017-Jun-22 18:10 337 4 gusting 8 14.4
2017-Jun-22 18:00 337 7 gusting 11 14.4
2017-Jun-22 17:50 345 10 gusting 12 14.4
2017-Jun-22 17:40 010 2 gusting 6 14.4
2017-Jun-22 17:30 353 3 gusting 8 13.9
2017-Jun-22 17:20 332 4 gusting 7 13.9
2017-Jun-22 17:10 355 2 gusting 2 13.9
2017-Jun-22 17:00 346 1 gusting 6 13.3
2017-Jun-22 16:50 344 3 gusting 6 13.3
2017-Jun-22 16:40 341 2 gusting 3 13.3
2017-Jun-22 16:30 341 2 gusting 3 12.8
2017-Jun-22 16:20 350 0 gusting 3 12.8
2017-Jun-22 16:10 297 2 gusting 3 12.8
2017-Jun-22 16:00 354 0 gusting 3 12.8
2017-Jun-22 15:50 354 1 gusting 3 12.8
2017-Jun-22 15:40 354 0 gusting 2 12.8
2017-Jun-22 15:30 355 12.8
2017-Jun-22 15:20 354 1 gusting 1 12.8
2017-Jun-22 15:10 355 1 gusting 3 12.8
2017-Jun-22 15:00 350 2 gusting 4 12.8
2017-Jun-22 14:50 349 3 gusting 3 12.8
2017-Jun-22 14:40 222 1 gusting 2 12.8
2017-Jun-22 14:30 222 12.8
2017-Jun-22 14:20 222 12.2
2017-Jun-22 14:09 259 12.2
2017-Jun-22 13:59 260 11.7
2017-Jun-22 13:50 125 11.1
2017-Jun-22 13:40 126 10.6
2017-Jun-22 13:29 150 10.6
2017-Jun-22 13:19 150 10.0
2017-Jun-22 13:09 150 10.0
2017-Jun-22 12:59 151 10.0
2017-Jun-22 12:49 150 1 gusting 1 10.0
2017-Jun-22 12:39 150 1 gusting 2 10.0
2017-Jun-22 12:29 150 1 gusting 3 9.4
2017-Jun-22 12:20 150 1 gusting 4 9.4
2017-Jun-22 12:10 150 3 gusting 4 9.4
2017-Jun-22 11:59 151 2 gusting 4 9.4
2017-Jun-22 11:49 151 3 gusting 5 9.4
2017-Jun-22 11:39 350 1 gusting 2 9.4
2017-Jun-22 11:29 350 1 gusting 2 9.4
2017-Jun-22 11:19 350 2 gusting 3 9.4
2017-Jun-22 11:09 350 1 gusting 2 9.4
2017-Jun-22 11:00 350 0 gusting 0 9.4
2017-Jun-22 10:50 350 10.0
2017-Jun-22 10:40 350 9.4
2017-Jun-22 10:30 350 10.0
2017-Jun-22 10:20 350 10.0
2017-Jun-22 10:10 350 10.0
2017-Jun-22 10:00 350 10.0
2017-Jun-22 09:50 350 10.0
2017-Jun-22 09:40 350 10.0
2017-Jun-22 09:30 350 1 gusting 1 10.0
2017-Jun-22 09:20 350 10.0
2017-Jun-22 09:10 350 0 gusting 1 10.6
2017-Jun-22 09:00 350 0 gusting 1 10.6
2017-Jun-22 08:50 350 10.6
2017-Jun-22 08:40 350 10.6
2017-Jun-22 08:30 350 11.1
2017-Jun-22 08:20 350 0 gusting 1 11.1
2017-Jun-22 08:10 350 11.7
2017-Jun-22 08:00 350 11.7
2017-Jun-22 07:50 350 1 gusting 2 11.7
2017-Jun-22 07:40 350 2 gusting 4 11.7
2017-Jun-22 07:30 351 2 gusting 6 11.7
2017-Jun-22 07:20 287 3 gusting 4 11.1
2017-Jun-22 07:10 236 0 gusting 2 11.1
2017-Jun-22 07:00 236 11.1
2017-Jun-22 06:50 236 11.1
2017-Jun-22 06:40 236 11.1
2017-Jun-22 06:30 337 1 gusting 4 11.1
2017-Jun-22 06:20 237 1 gusting 2 11.1
2017-Jun-22 06:10 236 0 gusting 3 11.1
2017-Jun-22 06:00 304 0 gusting 5 11.7
2017-Jun-22 05:50 332 2 gusting 4 11.7
2017-Jun-22 05:40 276 3 gusting 4 11.7
2017-Jun-22 05:30 275 0 gusting 6 12.2
2017-Jun-22 05:20 278 3 gusting 6 12.2
2017-Jun-22 05:10 295 4 gusting 9 12.8
2017-Jun-22 05:00 278 8 gusting 11 12.8
2017-Jun-22 04:50 305 5 gusting 11 12.8
2017-Jun-22 04:40 295 6 gusting 12 12.8
2017-Jun-22 04:30 268 7 gusting 11 13.3
2017-Jun-22 04:20 258 3 gusting 13 13.3
2017-Jun-22 04:10 252 6 gusting 14 13.3
2017-Jun-22 04:00 233 11 gusting 13 13.3
2017-Jun-22 03:50 282 12 gusting 14 13.3
2017-Jun-22 03:40 309 6 gusting 11 13.3
2017-Jun-22 03:30 289 8 gusting 10 13.3
2017-Jun-22 03:20 272 7 gusting 10 13.3
2017-Jun-22 03:10 259 9 gusting 10 13.3
2017-Jun-22 03:00 341 8 gusting 13 14.4
2017-Jun-22 02:50 241 5 gusting 14 15.0
2017-Jun-22 02:40 273 2 gusting 11 15.0
2017-Jun-22 02:30 277 6 gusting 12 15.0
2017-Jun-22 02:20 276 7 gusting 11 14.4
2017-Jun-22 02:10 337 8 gusting 9 13.9
2017-Jun-22 02:00 332 4 gusting 12 13.9
2017-Jun-22 01:50 289 10 gusting 12 14.4
2017-Jun-22 01:40 278 4 gusting 10 14.4
2017-Jun-22 01:30 358 4 gusting 6 14.4
2017-Jun-22 01:20 332 3 gusting 8 14.4
2017-Jun-22 01:10 332 5 gusting 10 14.4
2017-Jun-22 01:00 327 9 gusting 9 14.4
2017-Jun-22 00:50 234 6 gusting 8 14.4
2017-Jun-22 00:40 348 6 gusting 9 13.9
2017-Jun-22 00:30 337 6 gusting 12 13.9
2017-Jun-22 00:20 345 11 gusting 13 13.9
2017-Jun-22 00:10 341 7 gusting 13 13.9
2017-Jun-22 00:00 332 11 gusting 12 13.9
2017-Jun-21 23:50 351 6 gusting 10 13.9
2017-Jun-21 23:40 348 7 gusting 13 13.9
2017-Jun-21 23:30 337 11 gusting 13 13.9
2017-Jun-21 23:20 341 11 gusting 13 13.9
2017-Jun-21 23:10 337 10 gusting 12 13.9
2017-Jun-21 23:00 347 9 gusting 9 13.9
2017-Jun-21 22:50 345 8 gusting 10 13.9
2017-Jun-21 22:40 348 8 gusting 10 13.9
2017-Jun-21 22:30 346 8 gusting 9 13.9
2017-Jun-21 22:20 337 8 gusting 12 13.9
2017-Jun-21 22:10 342 11 gusting 13 13.9
2017-Jun-21 22:00 347 10 gusting 13 13.9
2017-Jun-21 21:49 346 11 gusting 13 13.9
2017-Jun-21 21:39 337 13 gusting 14 13.3
2017-Jun-21 21:29 337 13 gusting 14 13.3
2017-Jun-21 21:20 302 9 gusting 13 13.9
2017-Jun-21 21:09 332 11 gusting 12 13.9
2017-Jun-21 20:59 337 10 gusting 13 14.4
2017-Jun-21 20:50 302 6 gusting 11 15.0
2017-Jun-21 20:39 343 3 gusting 6 15.6
2017-Jun-21 20:29 012 2 gusting 6 15.6
2017-Jun-21 20:19 006 4 gusting 5 15.6
2017-Jun-21 20:10 021 3 gusting 5 15.6
2017-Jun-21 20:00 017 4 gusting 4 15.0
2017-Jun-21 19:50 012 2 gusting 3 15.0
2017-Jun-21 19:40 012 2 gusting 4 15.6
2017-Jun-21 19:30 010 3 gusting 3 15.6
2017-Jun-21 19:20 010 3 gusting 3 15.6
2017-Jun-21 19:10 010 2 gusting 2 15.6
2017-Jun-21 19:00 011 0 gusting 3 15.0
2017-Jun-21 18:50 010 2 gusting 3 14.4
2017-Jun-21 18:39 011 3 gusting 4 14.4
2017-Jun-21 18:30 022 3 gusting 4 14.4
2017-Jun-21 18:20 234 1 gusting 2 13.9
2017-Jun-21 18:10 216 1 gusting 3 13.9
2017-Jun-21 18:00 147 0 gusting 2 13.9
2017-Jun-21 17:50 147 0 gusting 4 13.9
2017-Jun-21 17:40 060 13.3
2017-Jun-21 17:30 060 13.3
2017-Jun-21 17:20 060 13.3
2017-Jun-21 17:10 060 12.8
2017-Jun-21 17:00 060 0 gusting 1 12.8
2017-Jun-21 16:50 060 1 gusting 2 12.8
2017-Jun-21 16:40 060 2 gusting 2 12.8
2017-Jun-21 16:30 060 1 gusting 3 12.8
2017-Jun-21 16:20 062 2 gusting 3 12.8
2017-Jun-21 16:10 062 12.8
2017-Jun-21 16:00 066 12.8
2017-Jun-21 15:50 066 12.8
2017-Jun-21 15:40 066 12.8
2017-Jun-21 15:30 066 12.8
2017-Jun-21 15:20 073 0 gusting 2 13.3
2017-Jun-21 15:10 073 13.3
2017-Jun-21 15:00 070 13.3
2017-Jun-21 14:50 041 0 gusting 2 13.3
2017-Jun-21 14:40 043 0 gusting 4 12.8
2017-Jun-21 14:30 018 2 gusting 3 12.8
2017-Jun-21 14:20 022 0 gusting 3 12.2
2017-Jun-21 14:10 341 1 gusting 1 11.7
2017-Jun-21 14:00 341 11.1
2017-Jun-21 13:50 341 11.1
2017-Jun-21 13:40 341 11.1
2017-Jun-21 13:30 341 11.1
2017-Jun-21 13:20 341 10.6
2017-Jun-21 13:10 341 10.6
2017-Jun-21 13:00 341 10.6